createdAt,value
2019-05-13T00:01:34.718Z,100620.54
2019-05-13T00:04:03.966Z,100617.41
2019-05-13T00:06:34.300Z,100627.67
2019-05-13T00:09:06.390Z,100627.27
2019-05-13T00:11:35.633Z,100631.31
2019-05-13T00:14:04.914Z,100632.80
2019-05-13T00:16:34.308Z,100631.75
2019-05-13T00:19:04.255Z,100627.27
2019-05-13T00:21:34.014Z,100631.36
2019-05-13T00:24:04.090Z,100626.52
2019-05-13T00:26:33.937Z,100632.09
2019-05-13T00:29:04.191Z,100634.77
2019-05-13T00:31:33.751Z,100636.09
2019-05-13T00:34:03.689Z,100646.48
2019-05-13T00:36:33.828Z,100639.81
2019-05-13T00:39:05.423Z,100636.59
2019-05-13T00:41:34.741Z,100633.23
2019-05-13T00:44:04.632Z,100623.32
2019-05-13T00:46:34.142Z,100621.89
2019-05-13T00:49:04.737Z,100624.77
2019-05-13T00:51:34.125Z,100622.67
2019-05-13T00:54:04.295Z,100629.32
2019-05-13T00:56:34.542Z,100626.72
2019-05-13T00:59:03.978Z,100634.29
2019-05-13T01:01:33.592Z,100626.39
2019-05-13T01:04:04.006Z,100632.70
2019-05-13T01:06:34.148Z,100635.16
2019-05-13T01:09:05.536Z,100634.59
2019-05-13T01:11:34.804Z,100630.97
2019-05-13T01:14:04.415Z,100620.70
2019-05-13T01:16:34.145Z,100626.30
2019-05-13T01:19:04.192Z,100630.02
2019-05-13T01:21:34.580Z,100631.88
2019-05-13T01:24:04.055Z,100621.75
2019-05-13T01:26:33.782Z,100631.15
2019-05-13T01:29:04.132Z,100634.50
2019-05-13T01:31:34.403Z,100631.26
2019-05-13T01:34:04.109Z,100638.11
2019-05-13T01:36:34.234Z,100630.16
2019-05-13T01:39:05.985Z,100628.86
2019-05-13T01:41:35.151Z,100633.94
2019-05-13T01:44:04.446Z,100641.52
2019-05-13T01:46:34.670Z,100638.48
2019-05-13T01:49:04.942Z,100647.42
2019-05-13T01:51:34.549Z,100641.78
2019-05-13T01:54:04.267Z,100643.40
2019-05-13T01:56:34.076Z,100640.94
2019-05-13T01:59:03.789Z,100639.00
2019-05-13T02:01:33.798Z,100646.45
2019-05-13T02:04:03.897Z,100645.05
2019-05-13T02:06:33.809Z,100647.86
2019-05-13T02:09:04.763Z,100646.19
2019-05-13T02:11:34.268Z,100646.68
2019-05-13T02:14:05.647Z,100653.52
2019-05-13T02:16:35.018Z,100649.14
2019-05-13T02:19:04.295Z,100651.39
2019-05-13T02:21:33.807Z,100646.17
2019-05-13T02:24:04.274Z,100636.86
2019-05-13T02:26:34.490Z,100645.41
2019-05-13T02:29:04.046Z,100647.16
2019-05-13T02:31:46.048Z,100661.06
2019-05-13T02:34:04.351Z,100667.83
2019-05-13T02:36:33.549Z,100657.42
2019-05-13T02:39:04.439Z,100665.27
2019-05-13T02:41:34.265Z,100654.48
2019-05-13T02:44:03.968Z,100656.54
2019-05-13T02:46:34.104Z,100664.47
2019-05-13T02:49:03.639Z,100659.64
2019-05-13T02:51:33.111Z,100665.80
2019-05-13T02:54:03.467Z,100668.30
2019-05-13T02:56:33.323Z,100666.46
2019-05-13T02:59:03.883Z,100670.96
2019-05-13T03:01:33.641Z,100671.37
2019-05-13T03:04:03.397Z,100673.53
2019-05-13T03:06:33.481Z,100691.30
2019-05-13T03:09:03.250Z,100693.03
2019-05-13T03:11:33.282Z,100699.09
2019-05-13T03:14:03.630Z,100708.52
2019-05-13T03:16:37.616Z,100696.61
2019-05-13T03:19:06.859Z,100707.61
2019-05-13T03:21:36.150Z,100711.09
2019-05-13T03:24:05.407Z,100712.05
2019-05-13T03:26:34.662Z,100715.81
2019-05-13T03:29:03.861Z,100704.92
2019-05-13T03:31:35.747Z,100713.47
2019-05-13T03:34:06.493Z,100713.02
2019-05-13T03:36:36.625Z,100699.77
2019-05-13T03:39:12.452Z,100698.20
2019-05-13T03:41:42.355Z,100695.64
2019-05-13T03:44:13.915Z,100697.58
2019-05-13T03:46:43.283Z,100710.91
2019-05-13T03:49:13.701Z,100717.84
2019-05-13T03:51:43.699Z,100721.23
2019-05-13T03:54:13.225Z,100729.08
2019-05-13T03:56:42.829Z,100732.50
2019-05-13T03:59:13.306Z,100748.73
2019-05-13T04:01:42.998Z,100740.86
2019-05-13T04:04:12.729Z,100748.83
2019-05-13T04:06:43.002Z,100747.27
2019-05-13T04:09:22.464Z,100744.04
2019-05-13T04:11:43.554Z,100734.43
2019-05-13T04:14:12.742Z,100740.83
2019-05-13T04:16:42.966Z,100738.23
2019-05-13T04:19:12.530Z,100737.52
2019-05-13T04:21:43.395Z,100736.55
2019-05-13T04:24:12.573Z,100738.34
2019-05-13T04:26:43.282Z,100741.39
2019-05-13T04:29:13.445Z,100743.27
2019-05-13T04:31:42.932Z,100744.48
2019-05-13T04:34:12.551Z,100743.27
2019-05-13T04:36:43.116Z,100736.95
2019-05-13T04:39:13.081Z,100738.61
2019-05-13T04:41:42.608Z,100733.30
2019-05-13T04:44:13.121Z,100732.88
2019-05-13T04:46:43.576Z,100738.04
2019-05-13T04:49:13.014Z,100747.95
2019-05-13T04:51:42.329Z,100751.10
2019-05-13T04:54:13.075Z,100746.83
2019-05-13T04:56:42.626Z,100745.78
2019-05-13T04:59:12.683Z,100748.39
2019-05-13T05:01:55.403Z,100756.84
2019-05-13T05:04:28.713Z,100767.56
2019-05-13T05:07:28.522Z,100779.55
2019-05-13T05:10:30.269Z,100778.16
2019-05-13T05:13:17.306Z,100781.80
2019-05-13T05:16:17.376Z,100776.63
2019-05-13T05:18:56.005Z,100779.48
2019-05-13T05:21:37.969Z,100796.42
2019-05-13T05:24:31.734Z,100796.39
2019-05-13T05:27:26.752Z,100794.31
2019-05-13T05:30:26.549Z,100799.23
2019-05-13T05:33:31.921Z,100793.99
2019-05-13T05:36:25.730Z,100809.09
2019-05-13T05:39:09.160Z,100806.44
2019-05-13T05:41:38.666Z,100802.72
2019-05-13T05:44:08.607Z,100803.41
2019-05-13T05:46:42.775Z,100810.94
2019-05-13T05:49:12.884Z,100817.02
2019-05-13T05:51:42.245Z,100812.57
2019-05-13T05:54:14.472Z,100806.03
2019-05-13T05:56:42.711Z,100808.92
2019-05-13T05:59:12.607Z,100804.67
2019-05-13T06:01:43.487Z,100810.56
2019-05-13T06:04:12.856Z,100818.22
2019-05-13T06:06:42.173Z,100818.47
2019-05-13T06:09:12.185Z,100819.16
2019-05-13T06:11:41.825Z,100819.05
2019-05-13T06:14:11.444Z,100823.64
2019-05-13T06:16:42.568Z,100821.18
2019-05-13T06:19:12.203Z,100825.94
2019-05-13T06:21:42.142Z,100827.75
2019-05-13T06:24:11.852Z,100824.78
2019-05-13T06:26:42.093Z,100830.23
2019-05-13T06:29:11.826Z,100832.97
2019-05-13T06:31:41.911Z,100824.69
2019-05-13T06:34:12.588Z,100815.08
2019-05-13T06:36:42.059Z,100817.88
2019-05-13T06:39:12.353Z,100809.28
2019-05-13T06:41:41.904Z,100821.78
2019-05-13T06:44:12.149Z,100811.89
2019-05-13T06:46:42.283Z,100818.20
2019-05-13T06:49:12.288Z,100814.77
2019-05-13T06:51:42.024Z,100818.53
2019-05-13T06:54:11.480Z,100817.25
2019-05-13T06:56:42.832Z,100814.63
2019-05-13T06:59:12.065Z,100822.97
2019-05-13T07:01:42.406Z,100813.44
2019-05-13T07:04:12.040Z,100816.98
2019-05-13T07:06:42.031Z,100821.32
2019-05-13T07:09:12.127Z,100823.67
2019-05-13T07:11:41.752Z,100826.75
2019-05-13T07:14:12.761Z,100831.47
2019-05-13T07:16:42.302Z,100838.55
2019-05-13T07:19:11.882Z,100834.63
2019-05-13T07:21:41.829Z,100842.03
2019-05-13T07:24:12.656Z,100853.47
2019-05-13T07:26:42.236Z,100849.03
2019-05-13T07:29:13.033Z,100850.42
2019-05-13T07:31:42.799Z,100852.78
2019-05-13T07:34:12.057Z,100856.08
2019-05-13T07:36:42.212Z,100860.02
2019-05-13T07:39:12.030Z,100863.39
2019-05-13T07:41:43.037Z,100857.11
2019-05-13T07:44:12.657Z,100860.02
2019-05-13T07:46:42.629Z,100867.37
2019-05-13T07:49:12.152Z,100875.23
2019-05-13T07:51:42.163Z,100869.66
2019-05-13T07:54:11.657Z,100871.92
2019-05-13T07:56:42.649Z,100882.31
2019-05-13T07:59:12.425Z,100879.15
2019-05-13T08:01:42.006Z,100877.53
2019-05-13T08:04:21.772Z,100880.63
2019-05-13T08:06:42.200Z,100886.66
2019-05-13T08:09:12.860Z,100879.30
2019-05-13T08:12:00.248Z,100878.06
2019-05-13T08:14:13.170Z,100872.40
2019-05-13T08:16:42.874Z,100879.61
2019-05-13T08:19:12.510Z,100880.31
2019-05-13T08:21:41.975Z,100886.84
2019-05-13T08:24:12.056Z,100895.30
2019-05-13T08:26:45.183Z,100898.23
2019-05-13T08:29:12.398Z,100898.92
2019-05-13T08:31:41.770Z,100904.47
2019-05-13T08:34:11.760Z,100904.97
2019-05-13T08:36:42.665Z,100904.02
2019-05-13T08:39:12.715Z,100915.25
2019-05-13T08:41:42.472Z,100914.63
2019-05-13T08:44:12.619Z,100916.86
2019-05-13T08:46:41.921Z,100913.69
2019-05-13T08:49:12.062Z,100911.04
2019-05-13T08:51:42.351Z,100914.36
2019-05-13T08:54:11.868Z,100917.89
2019-05-13T08:56:41.793Z,100920.75
2019-05-13T08:59:11.590Z,100920.56
2019-05-13T09:01:42.762Z,100918.73
2019-05-13T09:04:12.267Z,100927.06
2019-05-13T09:06:42.114Z,100927.92
2019-05-13T09:09:11.755Z,100921.83
2019-05-13T09:11:42.155Z,100925.73
2019-05-13T09:14:11.763Z,100921.49
2019-05-13T09:16:41.886Z,100938.29
2019-05-13T09:19:15.961Z,100932.95
2019-05-13T09:21:42.588Z,100935.55
2019-05-13T09:24:23.907Z,100936.78
2019-05-13T09:26:42.876Z,100930.27
2019-05-13T09:29:12.224Z,100938.03
2019-05-13T09:31:41.756Z,100934.48
2019-05-13T09:34:12.221Z,100941.20
2019-05-13T09:36:41.949Z,100934.00
2019-05-13T09:39:12.647Z,100933.14
2019-05-13T09:41:44.633Z,100941.23
2019-05-13T09:44:13.255Z,100942.63
2019-05-13T09:46:42.746Z,100944.11
2019-05-13T09:49:19.411Z,100943.44
2019-05-13T09:51:42.956Z,100942.95
2019-05-13T09:54:12.199Z,100945.00
2019-05-13T09:56:41.578Z,100944.19
2019-05-13T09:59:11.746Z,100943.47
2019-05-13T10:01:42.575Z,100944.02
2019-05-13T10:04:12.130Z,100948.66
2019-05-13T10:06:42.202Z,100944.28
2019-05-13T10:09:12.533Z,100956.28
2019-05-13T10:11:42.170Z,100948.69
2019-05-13T10:14:11.865Z,100955.34
2019-05-13T10:16:42.498Z,100955.98
2019-05-13T10:19:12.833Z,100950.63
2019-05-13T10:21:42.393Z,100960.82
2019-05-13T10:24:12.715Z,100953.78
2019-05-13T10:26:43.220Z,100965.79
2019-05-13T10:29:12.683Z,100965.95
2019-05-13T10:31:42.362Z,100965.09
2019-05-13T10:34:14.044Z,100956.19
2019-05-13T10:36:42.995Z,100965.11
2019-05-13T10:39:12.828Z,100970.97
2019-05-13T10:41:42.659Z,100978.63
2019-05-13T10:44:12.354Z,100973.08
2019-05-13T10:46:42.605Z,100984.20
2019-05-13T10:49:12.406Z,100974.59
2019-05-13T10:51:42.129Z,100979.17
2019-05-13T10:54:11.332Z,100986.46
2019-05-13T10:56:43.050Z,100988.26
2019-05-13T10:59:12.669Z,100989.98
2019-05-13T11:01:42.787Z,100992.42
2019-05-13T11:04:13.579Z,100982.44
2019-05-13T11:06:43.280Z,100985.98
2019-05-13T11:09:13.346Z,100975.92
2019-05-13T11:11:42.627Z,100971.70
2019-05-13T11:14:15.492Z,100972.91
2019-05-13T11:16:42.929Z,100964.84
2019-05-13T11:19:12.310Z,100969.85
2019-05-13T11:21:44.103Z,100978.46
2019-05-13T11:24:12.976Z,100970.83
2019-05-13T11:26:42.333Z,100977.61
2019-05-13T11:29:12.270Z,100973.23
2019-05-13T11:31:42.849Z,100966.36
2019-05-13T11:34:12.407Z,100966.36
2019-05-13T11:36:43.142Z,100967.33
2019-05-13T11:39:13.182Z,100977.23
2019-05-13T11:41:42.980Z,100979.86
2019-05-13T11:44:16.458Z,100978.53
2019-05-13T11:46:43.411Z,100974.22
2019-05-13T11:49:12.760Z,100972.66
2019-05-13T11:51:42.763Z,100975.02
2019-05-13T11:54:13.914Z,100972.02
2019-05-13T11:56:49.486Z,100976.19
2019-05-13T11:59:14.414Z,100979.05
2019-05-13T12:01:43.912Z,100979.28
2019-05-13T12:04:13.163Z,100981.53
2019-05-13T12:06:48.648Z,100973.63
2019-05-13T12:09:14.155Z,100973.80
2019-05-13T12:11:43.461Z,100976.22
2019-05-13T12:14:37.048Z,100985.47
2019-05-13T12:16:44.703Z,100985.32
2019-05-13T12:19:14.002Z,100985.29
2019-05-13T12:21:46.801Z,100990.08
2019-05-13T12:24:14.247Z,100994.05
2019-05-13T12:26:43.781Z,100991.38
2019-05-13T12:29:18.609Z,100999.45
2019-05-13T12:31:44.085Z,100997.48
2019-05-13T12:34:13.620Z,100998.93
2019-05-13T12:36:43.546Z,101001.89
2019-05-13T12:39:14.268Z,100993.41
2019-05-13T12:41:43.998Z,100986.41
2019-05-13T12:44:13.274Z,100983.08
2019-05-13T12:46:49.370Z,100975.16
2019-05-13T12:49:14.461Z,100983.42
2019-05-13T12:51:44.258Z,100965.54
2019-05-13T12:54:14.284Z,100972.78
2019-05-13T12:56:44.630Z,100967.78
2019-05-13T12:59:13.881Z,100967.16
2019-05-13T13:01:43.171Z,100962.27
2019-05-13T13:04:12.712Z,100956.25
2019-05-13T13:06:45.366Z,100962.45
2019-05-13T13:09:13.176Z,100962.98
2019-05-13T13:11:43.674Z,100960.24
2019-05-13T13:14:15.353Z,100955.23
2019-05-13T13:16:44.346Z,100939.69
2019-05-13T13:19:15.064Z,100940.72
2019-05-13T13:21:44.733Z,100952.81
2019-05-13T13:24:14.031Z,100943.62
2019-05-13T13:26:43.282Z,100942.94
2019-05-13T13:29:12.536Z,100934.17
2019-05-13T13:31:43.427Z,100930.94
2019-05-13T13:34:18.204Z,100933.55
2019-05-13T13:36:45.877Z,100933.56
2019-05-13T13:39:15.385Z,100934.09
2019-05-13T13:41:44.908Z,100937.25
2019-05-13T13:44:14.080Z,100931.41
2019-05-13T13:46:49.344Z,100924.92
2019-05-13T13:49:14.553Z,100929.33
2019-05-13T13:51:44.924Z,100923.53
2019-05-13T13:54:14.458Z,100919.72
2019-05-13T13:56:44.734Z,100923.05
2019-05-13T13:59:14.367Z,100919.08
2019-05-13T14:01:43.626Z,100928.34
2019-05-13T14:04:16.410Z,100925.57
2019-05-13T14:09:14.936Z,100929.42
2019-05-13T14:11:44.179Z,100939.20
2019-05-13T14:14:13.436Z,100935.94
2019-05-13T14:16:46.180Z,100937.34
2019-05-13T14:19:13.853Z,100937.34
2019-05-13T14:21:43.179Z,100933.69
2019-05-13T14:24:12.427Z,100931.94
2019-05-13T14:26:43.440Z,100931.80
2019-05-13T14:29:12.961Z,100926.52
2019-05-13T14:31:42.534Z,100939.05
2019-05-13T14:34:11.888Z,100935.11
2019-05-13T14:36:41.207Z,100938.03
2019-05-13T14:39:12.040Z,100930.45
2019-05-13T14:41:42.556Z,100935.94
2019-05-13T14:44:12.618Z,100942.60
2019-05-13T14:46:47.573Z,100941.04
2019-05-13T14:49:12.938Z,100938.70
2019-05-13T14:51:43.101Z,100927.64
2019-05-13T14:54:12.433Z,100928.72
2019-05-13T14:56:42.093Z,100933.06
2019-05-13T14:59:11.998Z,100938.64
2019-05-13T15:01:41.466Z,100936.97
2019-05-13T15:04:12.278Z,100941.10
2019-05-13T15:06:41.947Z,100932.84
2019-05-13T15:09:12.581Z,100936.44
2019-05-13T15:11:42.174Z,100935.55
2019-05-13T15:14:12.380Z,100934.08
2019-05-13T15:16:42.826Z,100930.94
2019-05-13T15:19:12.353Z,100936.59
2019-05-13T15:21:41.607Z,100939.06
2019-05-13T15:24:12.361Z,100935.42
2019-05-13T15:26:42.308Z,100932.52
2019-05-13T15:29:11.872Z,100932.52
2019-05-13T15:31:42.208Z,100928.37
2019-05-13T15:34:11.799Z,100943.01
2019-05-13T15:36:41.945Z,100938.02
2019-05-13T15:39:11.972Z,100931.15
2019-05-13T15:41:41.992Z,100927.37
2019-05-13T15:44:11.613Z,100925.14
2019-05-13T15:46:42.784Z,100928.24
2019-05-13T15:49:12.547Z,100920.28
2019-05-13T15:51:42.399Z,100928.02
2019-05-13T15:54:15.264Z,100932.96
2019-05-13T15:56:42.913Z,100932.80
2019-05-13T15:59:12.659Z,100940.58
2019-05-13T16:01:42.424Z,100934.52
2019-05-13T16:04:13.553Z,100942.64
2019-05-13T16:06:43.213Z,100952.94
2019-05-13T16:09:12.675Z,100948.95
2019-05-13T16:11:42.009Z,100957.91
2019-05-13T16:14:11.916Z,100962.02
2019-05-13T16:16:41.892Z,100966.31
2019-05-13T16:19:11.500Z,100962.45
2019-05-13T16:21:41.625Z,100952.36
2019-05-13T16:24:11.976Z,100953.92
2019-05-13T16:26:42.683Z,100964.89
2019-05-13T16:29:12.778Z,100967.85
2019-05-13T16:31:42.116Z,100964.55
2019-05-13T16:34:13.430Z,100968.08
2019-05-13T16:36:43.169Z,100962.25
2019-05-13T16:39:12.754Z,100971.36
2019-05-13T16:41:42.757Z,100973.52
2019-05-13T16:44:12.279Z,100970.27
2019-05-13T16:46:42.393Z,100967.89
2019-05-13T16:49:12.361Z,100965.84
2019-05-13T16:51:42.606Z,100973.30
2019-05-13T16:54:12.074Z,100975.96
2019-05-13T16:56:42.001Z,100974.11
2019-05-13T16:59:11.735Z,100975.28
2019-05-13T17:01:41.983Z,100973.17
2019-05-13T17:04:12.576Z,100984.70
2019-05-13T17:06:42.162Z,100976.91
2019-05-13T17:09:11.739Z,100980.67
2019-05-13T17:11:41.617Z,100982.73
2019-05-13T17:14:11.257Z,100973.25
2019-05-13T17:16:41.453Z,100976.52
2019-05-13T17:19:12.149Z,100979.24
2019-05-13T17:21:41.747Z,100973.28
2019-05-13T17:24:12.461Z,100978.46
2019-05-13T17:26:42.239Z,100975.20
2019-05-13T17:29:12.209Z,100977.95
2019-05-13T17:31:41.918Z,100984.66
2019-05-13T17:34:12.209Z,100988.12
2019-05-13T17:36:42.224Z,100982.98
2019-05-13T17:39:12.574Z,100979.94
2019-05-13T17:41:42.284Z,100969.43
2019-05-13T17:44:11.872Z,100971.43
2019-05-13T17:46:42.004Z,100979.32
2019-05-13T17:49:12.126Z,100986.36
2019-05-13T17:51:42.472Z,100977.71
2019-05-13T17:54:12.598Z,100979.24
2019-05-13T17:56:41.895Z,100976.72
2019-05-13T17:59:11.710Z,100979.18
2019-05-13T18:01:41.464Z,100984.02
2019-05-13T18:04:11.823Z,100978.66
2019-05-13T18:06:41.891Z,100978.67
2019-05-13T18:09:12.102Z,100980.80
2019-05-13T18:11:41.926Z,100980.84
2019-05-13T18:14:11.691Z,100984.47
2019-05-13T18:16:41.908Z,100975.98
2019-05-13T18:19:12.108Z,100978.30
2019-05-13T18:21:42.444Z,100975.94
2019-05-13T18:24:12.205Z,100974.22
2019-05-13T18:26:42.184Z,100982.51
2019-05-13T18:29:12.518Z,100991.00
2019-05-13T18:31:42.391Z,100991.89
2019-05-13T18:34:12.400Z,100987.30
2019-05-13T18:36:42.600Z,100989.86
2019-05-13T18:39:12.652Z,100994.02
2019-05-13T18:41:42.194Z,100990.77
2019-05-13T18:44:12.196Z,100993.34
2019-05-13T18:46:42.063Z,100990.23
2019-05-13T18:49:12.116Z,100994.67
2019-05-13T18:51:42.218Z,100992.97
2019-05-13T18:54:12.217Z,100992.42
2019-05-13T18:56:41.919Z,100998.94
2019-05-13T18:59:12.493Z,100992.41
2019-05-13T19:01:42.297Z,100995.30
2019-05-13T19:04:11.705Z,101006.97
2019-05-13T19:06:42.357Z,101003.08
2019-05-13T19:09:11.996Z,101004.23
2019-05-13T19:11:42.652Z,101001.41
2019-05-13T19:14:12.476Z,100999.33
2019-05-13T19:16:42.351Z,101002.16
2019-05-13T19:19:15.737Z,100999.40
2019-05-13T19:21:42.823Z,100997.06
2019-05-13T19:24:13.415Z,101001.04
2019-05-13T19:26:43.038Z,101001.33
2019-05-13T19:29:12.452Z,101004.13
2019-05-13T19:31:42.016Z,101003.65
2019-05-13T19:34:12.469Z,101007.64
2019-05-13T19:36:42.167Z,101000.45
2019-05-13T19:39:11.616Z,100998.23
2019-05-13T19:41:42.340Z,100991.85
2019-05-13T19:44:11.996Z,100988.40
2019-05-13T19:46:42.267Z,100993.00
2019-05-13T19:49:13.826Z,100989.89
2019-05-13T19:51:43.096Z,100991.77
2019-05-13T19:54:12.360Z,100989.74
2019-05-13T19:56:41.711Z,100991.06
2019-05-13T19:59:12.406Z,100993.08
2019-05-13T20:01:42.398Z,100994.31
2019-05-13T20:04:11.937Z,100993.34
2019-05-13T20:06:41.633Z,100995.75
2019-05-13T20:09:11.136Z,100997.47
2019-05-13T20:11:42.005Z,100994.94
2019-05-13T20:14:12.148Z,100998.44
2019-05-13T20:16:41.878Z,100998.80
2019-05-13T20:19:11.800Z,100993.88
2019-05-13T20:21:42.572Z,100987.65
2019-05-13T20:24:12.117Z,100984.92
2019-05-13T20:26:41.603Z,100988.40
2019-05-13T20:29:12.329Z,100982.20
2019-05-13T20:31:41.891Z,100977.27
2019-05-13T20:34:11.988Z,100986.50
2019-05-13T20:36:42.263Z,100976.00
2019-05-13T20:39:11.852Z,100971.84
2019-05-13T20:41:41.632Z,100971.97
2019-05-13T20:44:11.023Z,100978.47
2019-05-13T20:46:42.272Z,100983.10
2019-05-13T20:49:12.196Z,100981.72
2019-05-13T20:51:41.746Z,100984.61
2019-05-13T20:54:12.173Z,100983.70
2019-05-13T20:56:42.397Z,100977.52
2019-05-13T20:59:12.004Z,100974.78
2019-05-13T21:01:41.872Z,100974.20
2019-05-13T21:04:12.328Z,100972.17
2019-05-13T21:06:42.468Z,100966.53
2019-05-13T21:09:16.712Z,100961.59
2019-05-13T21:11:43.002Z,100968.72
2019-05-13T21:14:12.472Z,100956.50
2019-05-13T21:16:41.899Z,100958.81
2019-05-13T21:19:12.474Z,100949.90
2019-05-13T21:21:41.966Z,100946.30
2019-05-13T21:24:11.326Z,100945.70
2019-05-13T21:26:41.999Z,100942.52
2019-05-13T21:29:11.729Z,100938.12
2019-05-13T21:31:41.891Z,100937.98
2019-05-13T21:34:12.036Z,100941.75
2019-05-13T21:39:41.912Z,100938.23
2019-05-13T21:42:11.554Z,100945.07
2019-05-13T21:44:41.987Z,100945.02
2019-05-13T21:47:11.548Z,100950.97
2019-05-13T21:49:42.347Z,100945.50
2019-05-13T21:52:13.435Z,100946.67
2019-05-13T21:54:42.818Z,100945.72
2019-05-13T21:57:13.841Z,100952.14
2019-05-13T21:59:45.101Z,100953.84
2019-05-13T22:02:14.590Z,100940.78
2019-05-13T22:04:43.769Z,100941.80
2019-05-13T22:07:13.173Z,100938.07
2019-05-13T22:09:42.446Z,100928.18
2019-05-13T22:12:11.694Z,100922.14
2019-05-13T22:14:41.283Z,100924.84
2019-05-13T22:17:12.274Z,100923.48
2019-05-13T22:19:42.084Z,100923.44
2019-05-13T22:22:11.716Z,100919.56
2019-05-13T22:24:41.793Z,100920.70
2019-05-13T22:27:13.243Z,100921.41
2019-05-13T22:29:42.426Z,100916.64
2019-05-13T22:32:11.874Z,100917.68
2019-05-13T22:34:41.958Z,100918.62
2019-05-13T22:37:13.176Z,100912.66
2019-05-13T22:39:42.671Z,100913.42
2019-05-13T22:42:13.292Z,100914.08
2019-05-13T22:44:42.602Z,100909.34
2019-05-13T22:47:13.439Z,100900.45
2019-05-13T22:49:42.902Z,100897.78
2019-05-13T22:52:12.212Z,100892.73
2019-05-13T22:54:41.565Z,100890.36
2019-05-13T22:57:11.973Z,100888.61
2019-05-13T22:59:41.729Z,100881.98
2019-05-13T23:02:11.023Z,100882.38
2019-05-13T23:04:41.850Z,100881.31
2019-05-13T23:07:11.759Z,100874.00
2019-05-13T23:09:41.710Z,100876.83
2019-05-13T23:12:12.311Z,100877.24
2019-05-13T23:14:41.937Z,100872.88
2019-05-13T23:17:12.532Z,100877.00
2019-05-13T23:19:41.909Z,100872.76
2019-05-13T23:22:12.033Z,100877.00
2019-05-13T23:24:41.920Z,100872.88
2019-05-13T23:27:11.222Z,100866.73
2019-05-13T23:29:41.280Z,100855.88
2019-05-13T23:32:12.068Z,100857.75
2019-05-13T23:34:42.292Z,100854.14
2019-05-13T23:37:11.734Z,100858.09
2019-05-13T23:39:41.651Z,100855.88
2019-05-13T23:42:12.148Z,100861.69
2019-05-13T23:44:41.741Z,100856.20
2019-05-13T23:47:11.594Z,100850.69
2019-05-13T23:49:42.207Z,100851.20
2019-05-13T23:52:11.977Z,100850.72
2019-05-13T23:54:42.461Z,100849.89
2019-05-13T23:57:12.085Z,100850.72
2019-05-13T23:59:41.821Z,100850.91
